Nearby METAR Reports

 

KSJC - San Jose, California, USA
Distance from station: NE 14km
Updated: 07/12/2021 19:06
Haze, Mostly cloudy
Haze, Mostly cloudy
 Wind from calm
Wind: Calm
Temperature: 13°C
Dew Point: 10°C
Humidity: 82%
Barometer: 1016.3 hPa
Summary: Haze
Clouds: Mostly cloudy
Visibility: 6 km
Cloud details: Few Clouds 0 m
Partly cloudy 244 m
Mostly cloudy 427 m
2021/12/07 18:06 KSJC 071806Z 00000KT 4SM HZ FEW000 SCT008 BKN014 13/10 A3001 RMK AO2 T01280100
KNUQ - Moffett Nas/Mtn, California, USA
Distance from station: N 14km
Updated: 07/12/2021 19:35
Haze, Mostly cloudy
Haze, Mostly cloudy
 Wind from varies
Wind: varies 7 km/h
Temperature: 12°C
Dew Point: 10°C
Humidity: 88%
Barometer: 1016.3 hPa
Summary: Haze
Clouds: Mostly cloudy
Visibility: 6 km
Cloud details: Mostly cloudy 366 m
2021/12/07 18:35 KNUQ 071835Z AUTO VRB04KT 4SM HZ BKN012 12/10 A3001 RMK AO2
 
KPAO - Palo Alto, California, USA
Distance from station: NNW 23km
Updated: 07/12/2021 19:10
Mist, Mostly cloudy
Mist, Mostly cloudy
 Wind from NE
Wind: NE 11 km/h
Temperature: 12°C
Dew Point: 9°C
Humidity: 82%
Barometer: 1016.6 hPa
Summary: Mist
Clouds: Mostly cloudy
Visibility: 10 km
Cloud details: Few Clouds 305 m
Mostly cloudy 549 m
2021/12/07 18:10 KPAO 071810Z 05006KT 6SM BR FEW010 BKN018 12/09 A3002 RMK RWY13
KRHV - San Jose/Reid, California, USA
Distance from station: ENE 19km
Updated: 07/12/2021 18:51
Mist, Overcast
Mist, Overcast
 Wind from ESE
Wind: ESE 6 km/h
Temperature: 12°C
Dew Point: 11°C
Humidity: 94%
Barometer: 1016.3 hPa
Summary: Mist
Clouds: Overcast
Visibility: 3 km
Cloud details: Overcast 152 m
2021/12/07 17:51 KRHV 071751Z 11003KT 2SM BR OVC005 12/11 A3001
 
KOAK - Oakland, California, USA
Distance from station: NNW 50km
Updated: 07/12/2021 18:53
Partly cloudy
Partly cloudy
 Wind from E
Wind: E 15 km/h
Temperature: 13°C
Dew Point: 9°C
Humidity: 77%
Barometer: 1016.6 hPa
Clouds: Partly cloudy
Visibility: 16 km
Cloud details: Few Clouds 457 m
Partly cloudy 1097 m
Partly cloudy 3353 m
Partly cloudy 6096 m
2021/12/07 17:53 KOAK 071753Z 09008KT 10SM FEW015 SCT036 SCT110 SCT200 13/09 A3002 RMK AO2 SLP164 T01280089 10128 20100 53006
KSQL - San Carlos Airpo, California, USA
Distance from station: NW 34km
Updated: 07/12/2021 19:47
Mist, Mostly cloudy
Mist, Mostly cloudy
 Wind from calm
Wind: Calm
Temperature: 12°C
Dew Point: 10°C
Humidity: 88%
Barometer: 1016.3 hPa
Summary: Mist
Clouds: Mostly cloudy
Visibility: 8 km
Cloud details: Partly cloudy 305 m
Mostly cloudy 457 m
2021/12/07 18:47 KSQL 071847Z 00000KT 5SM BR SCT010 BKN015 12/10 A3001
 
KSFO - San Francisco, California, USA
Distance from station: NW 49km
Updated: 07/12/2021 18:56
Haze, Overcast
Haze, Overcast
 Wind from ENE
Wind: ENE 19 km/h
Temperature: 12°C
Dew Point: 9°C
Humidity: 82%
Barometer: 1016.3 hPa
Summary: Haze
Clouds: Overcast
Visibility: 10 km
Cloud details: Overcast 335 m
2021/12/07 17:56 KSFO 071756Z 06010KT 6SM HZ OVC011 12/09 A3001 RMK AO2 SLP162 T01220094 10122 20111 53009 $
KE16 - San Martin, California, USA
Distance from station: ESE 43km
Updated: 07/12/2021 19:35
Mist, Overcast
Mist, Overcast
 Wind from calm
Wind: Calm
Temperature: 12°C
Dew Point: 11°C
Humidity: 94%
Barometer: 1016.6 hPa
Summary: Mist
Clouds: Overcast
Visibility: 8 km
Cloud details: Overcast 305 m
2021/12/07 18:35 KE16 071835Z AUTO 00000KT 5SM BR OVC010 12/11 A3002 RMK AO2 PWINO PNO
 
KWVI - Watsonville, California, USA
Distance from station: SSE 44km
Updated: 07/12/2021 19:19
Partly cloudy
Partly cloudy
 Wind from E
Wind: E 9 km/h
Temperature: 14°C
Dew Point: 11°C
Humidity: 82%
Barometer: 1015.9 hPa
Clouds: Partly cloudy
Visibility: 13 km
Cloud details: Partly cloudy 701 m
2021/12/07 18:19 KWVI 071819Z AUTO 08005KT 8SM SCT023 14/11 A3000 RMK AO2 T01390111
KHAF - Half Moon Bay, California, USA
Distance from station: WNW 50km
Updated: 07/12/2021 19:15
Clear
Clear
 Wind from W
Wind: W 13 km/h
Temperature: 14°C
Dew Point: 12°C
Humidity: 88%
Barometer: 1015.6 hPa
Clouds: Clear
Visibility: 13 km
2021/12/07 18:15 KHAF 071815Z AUTO 27007KT 8SM CLR 14/12 A2999 RMK AO2
 
KHWD - Hayward, California, USA
Distance from station: N 44km
Updated: 07/12/2021 18:54
Haze, Few clouds
Haze, Few clouds
 Wind from ENE
Wind: ENE 17 km/h
Temperature: 12°C
Dew Point: 9°C
Humidity: 82%
Barometer: 1016.3 hPa
Summary: Haze
Clouds: Few Clouds
Visibility: 6 km
Cloud details: Few Clouds 366 m
2021/12/07 17:54 KHWD 071754Z 07009KT 4SM HZ FEW012 12/09 A3001 RMK AO2 SLP172 T01170089 10117 20106 53007
KLVK - Livermore, California, USA
Distance from station: NNE 51km
Updated: 07/12/2021 18:53
Few Clouds
Few Clouds
 Wind from ENE
Wind: ENE 13 km/h
Temperature: 11°C
Dew Point: 8°C
Humidity: 82%
Barometer: 1016.3 hPa
Clouds: Few Clouds
Visibility: 13 km
Cloud details: Few Clouds 213 m
2021/12/07 17:53 KLVK 071753Z 07007KT 8SM FEW007 11/08 A3001 RMK AO2 SLP159 T01060083 10106 20083 50002